Time;durP1;ratioP1;P1;durP2;ratioP2;P2;SDS_P1;SDS_P2;PMS_P1;PMS_P2;Temp;Humidity;BMP_temperature;BMP_pressure;BME280_temperature;BME280_humidity;BME280_pressure;Samples;Min_cycle;Max_cycle;Signal;HPM_P1;HPM_P2
2023/03/20 00:01:29;;;;;;;;;;;10.40;99.90;;;;;;5069128;28;19969;-76
2023/03/20 00:03:56;;;;;;;;;;;10.40;99.90;;;;;;5068474;28;19912;-76
2023/03/20 00:06:26;;;;;;;;;;;10.40;99.90;;;;;;5068141;28;19912;-76
2023/03/20 00:08:53;;;;;;;;;;;10.40;99.90;;;;;;5068101;28;19920;-76
2023/03/20 00:11:25;;;;;;;;;;;10.40;99.90;;;;;;5067523;28;19912;-76
2023/03/20 00:13:51;;;;;;;;;;;10.30;99.90;;;;;;5068040;28;19970;-75
2023/03/20 00:16:17;;;;;;;;;;;10.40;99.90;;;;;;5067236;28;20603;-76
2023/03/20 00:18:43;;;;;;;;;;;10.30;99.90;;;;;;5068063;28;19973;-76
2023/03/20 00:21:15;;;;;;;;;;;10.30;99.90;;;;;;5067641;28;19920;-76
2023/03/20 00:23:41;;;;;;;;;;;10.30;99.90;;;;;;5068266;28;20644;-76
2023/03/20 00:26:10;;;;;;;;;;;10.30;99.90;;;;;;5067904;28;20003;-76
2023/03/20 00:28:41;;;;;;;;;;;10.30;99.90;;;;;;5050350;28;19916;-76
2023/03/20 00:31:17;;;;;;;;;;;10.30;99.90;;;;;;5087796;28;20288;-76
2023/03/20 00:33:42;;;;;;;;;;;10.20;99.90;;;;;;5080588;28;20352;-76
2023/03/20 00:36:08;;;;;;;;;;;10.20;99.90;;;;;;5067752;28;20045;-76
2023/03/20 00:38:33;;;;;;;;;;;10.20;99.90;;;;;;5068256;28;19915;-76
2023/03/20 00:40:59;;;;;;;;;;;10.20;99.90;;;;;;5067195;28;20353;-76
2023/03/20 00:43:24;;;;;;;;;;;10.20;99.90;;;;;;5067785;28;20031;-76
2023/03/20 00:45:50;;;;;;;;;;;10.20;99.90;;;;;;5049132;28;19909;-76
2023/03/20 00:48:15;;;;;;;;;;;10.20;99.90;;;;;;5067507;28;19908;-76
2023/03/20 00:50:41;;;;;;;;;;;10.10;99.90;;;;;;5067580;28;19945;-76
2023/03/20 00:53:10;;;;;;;;;;;10.10;99.90;;;;;;5067607;28;19920;-76
2023/03/20 00:55:36;;;;;;;;;;;10.10;99.90;;;;;;5067811;28;19912;-76
2023/03/20 00:58:02;;;;;;;;;;;10.10;99.90;;;;;;5062516;28;19920;-76
2023/03/20 01:00:31;;;;;;;;;;;10.10;99.90;;;;;;5075643;28;19913;-76
2023/03/20 01:02:57;;;;;;;;;;;10.10;99.90;;;;;;5071603;28;20285;-76
2023/03/20 01:05:24;;;;;;;;;;;10.10;99.90;;;;;;5071917;28;19912;-76
2023/03/20 01:07:50;;;;;;;;;;;10.10;99.90;;;;;;5071610;28;20069;-76
2023/03/20 01:10:16;;;;;;;;;;;10.10;99.90;;;;;;5071504;28;20389;-76
2023/03/20 01:12:42;;;;;;;;;;;10.00;99.90;;;;;;5070995;28;19942;-76
2023/03/20 01:15:19;;;;;;;;;;;10.00;99.90;;;;;;5071521;28;19955;-76
2023/03/20 01:17:45;;;;;;;;;;;10.00;99.90;;;;;;5070666;28;19917;-76
2023/03/20 01:20:16;;;;;;;;;;;10.00;99.90;;;;;;5071116;28;20374;-76
2023/03/20 01:22:41;;;;;;;;;;;10.00;99.90;;;;;;5071120;28;19912;-76
2023/03/20 01:25:07;;;;;;;;;;;10.00;99.90;;;;;;5071321;28;20425;-76
2023/03/20 01:27:32;;;;;;;;;;;10.00;99.90;;;;;;5071100;28;19966;-76
2023/03/20 01:29:58;;;;;;;;;;;9.90;99.90;;;;;;5082999;28;19912;-76
2023/03/20 01:32:23;;;;;;;;;;;9.90;99.90;;;;;;5090730;28;19943;-76
2023/03/20 01:34:49;;;;;;;;;;;10.00;99.90;;;;;;5074513;28;19909;-76
2023/03/20 01:37:21;;;;;;;;;;;9.90;99.90;;;;;;5070927;28;20446;-76
2023/03/20 01:39:47;;;;;;;;;;;9.90;99.90;;;;;;5070747;28;19958;-76
2023/03/20 01:42:14;;;;;;;;;;;9.90;99.90;;;;;;5070267;28;19912;-76
2023/03/20 01:44:39;;;;;;;;;;;9.90;99.90;;;;;;5070729;28;19912;-76
2023/03/20 01:47:13;;;;;;;;;;;9.90;99.90;;;;;;5070451;28;19908;-76
2023/03/20 01:49:57;;;;;;;;;;;9.90;99.90;;;;;;5070552;28;19936;-76
2023/03/20 01:52:22;;;;;;;;;;;9.90;99.90;;;;;;5070275;28;19918;-76
2023/03/20 01:54:48;;;;;;;;;;;9.80;99.90;;;;;;5052814;28;19912;-76
2023/03/20 01:57:16;;;;;;;;;;;9.80;99.90;;;;;;5070188;28;19987;-76
2023/03/20 01:59:42;;;;;;;;;;;9.80;99.90;;;;;;5074371;28;19957;-76
2023/03/20 02:02:08;;;;;;;;;;;9.80;99.90;;;;;;5070207;28;19920;-76
2023/03/20 02:04:37;;;;;;;;;;;9.80;99.90;;;;;;5057965;28;19915;-76
2023/03/20 02:07:04;;;;;;;;;;;9.80;99.90;;;;;;5070646;28;19968;-76
2023/03/20 02:09:29;;;;;;;;;;;9.80;99.90;;;;;;5069460;28;19946;-76
2023/03/20 02:11:56;;;;;;;;;;;9.80;99.90;;;;;;5070103;28;19908;-76
2023/03/20 02:14:22;;;;;;;;;;;9.80;99.90;;;;;;5070597;28;19920;-76
2023/03/20 02:16:47;;;;;;;;;;;9.70;99.90;;;;;;5069947;28;20007;-76
2023/03/20 02:19:22;;;;;;;;;;;9.70;99.90;;;;;;5070104;28;20029;-76
2023/03/20 02:21:59;;;;;;;;;;;9.70;99.90;;;;;;5049845;28;19921;-76
2023/03/20 02:24:31;;;;;;;;;;;9.70;99.90;;;;;;5050345;28;19951;-76
2023/03/20 02:26:59;;;;;;;;;;;9.70;99.90;;;;;;5049914;28;19913;-76
2023/03/20 02:29:34;;;;;;;;;;;9.70;99.90;;;;;;5064216;28;19919;-76
2023/03/20 02:32:09;;;;;;;;;;;9.70;99.90;;;;;;5086498;28;19912;-76
2023/03/20 02:34:40;;;;;;;;;;;9.70;99.90;;;;;;5085065;28;19919;-76
2023/03/20 02:37:18;;;;;;;;;;;9.60;99.90;;;;;;5090070;28;19919;-76
2023/03/20 02:39:49;;;;;;;;;;;9.60;99.90;;;;;;5086212;28;19922;-76
2023/03/20 02:42:19;;;;;;;;;;;9.60;99.90;;;;;;5069519;28;19913;-75
2023/03/20 02:44:52;;;;;;;;;;;9.60;99.90;;;;;;5072497;28;19912;-76
2023/03/20 02:47:22;;;;;;;;;;;9.60;99.90;;;;;;5069679;28;19916;-75
2023/03/20 02:49:50;;;;;;;;;;;9.60;99.90;;;;;;5069582;28;19912;-76
2023/03/20 02:52:16;;;;;;;;;;;9.60;99.90;;;;;;5069446;28;19919;-76
2023/03/20 02:54:50;;;;;;;;;;;9.60;99.90;;;;;;5069639;28;20268;-75
2023/03/20 02:57:22;;;;;;;;;;;9.50;99.90;;;;;;5063866;28;19995;-76
2023/03/20 03:00:00;;;;;;;;;;;9.50;99.90;;;;;;5067934;28;20435;-75
2023/03/20 03:02:33;;;;;;;;;;;9.50;99.90;;;;;;5068731;28;20651;-76
2023/03/20 03:05:00;;;;;;;;;;;9.50;99.90;;;;;;5069527;28;20323;-76
2023/03/20 03:07:29;;;;;;;;;;;9.50;99.90;;;;;;5069390;28;20026;-76
2023/03/20 03:10:04;;;;;;;;;;;9.50;99.90;;;;;;5069487;28;19912;-76
2023/03/20 03:12:33;;;;;;;;;;;9.50;99.90;;;;;;5051252;28;19923;-76
2023/03/20 03:15:03;;;;;;;;;;;9.50;99.90;;;;;;5051476;28;19912;-75
2023/03/20 03:17:31;;;;;;;;;;;9.40;99.90;;;;;;5051099;28;19916;-76
2023/03/20 03:20:00;;;;;;;;;;;9.40;99.90;;;;;;5069005;28;20013;-75
2023/03/20 03:22:25;;;;;;;;;;;9.40;99.90;;;;;;5068190;28;19955;-76
2023/03/20 03:24:52;;;;;;;;;;;9.50;99.90;;;;;;5069052;28;20029;-76
2023/03/20 03:27:17;;;;;;;;;;;9.40;99.90;;;;;;5068803;28;19920;-75
2023/03/20 03:29:44;;;;;;;;;;;9.40;99.90;;;;;;5069014;28;19912;-76
2023/03/20 03:32:21;;;;;;;;;;;9.40;99.90;;;;;;5068570;28;19917;-76
2023/03/20 03:34:47;;;;;;;;;;;9.40;99.90;;;;;;5085703;28;19912;-76
2023/03/20 03:37:22;;;;;;;;;;;9.40;99.90;;;;;;5089021;28;19916;-75
2023/03/20 03:39:52;;;;;;;;;;;9.30;99.90;;;;;;5083391;28;19917;-75
2023/03/20 03:42:26;;;;;;;;;;;9.30;99.90;;;;;;5067981;28;19920;-75
2023/03/20 03:44:58;;;;;;;;;;;9.30;99.90;;;;;;5067766;28;20346;-76
2023/03/20 03:47:27;;;;;;;;;;;9.30;99.90;;;;;;5068513;28;19912;-76
2023/03/20 03:49:57;;;;;;;;;;;9.30;99.90;;;;;;5068457;28;20284;-76
2023/03/20 03:52:23;;;;;;;;;;;9.30;99.90;;;;;;5068149;28;19920;-75
2023/03/20 03:54:49;;;;;;;;;;;9.30;99.90;;;;;;5068303;28;19920;-75
2023/03/20 03:57:16;;;;;;;;;;;9.30;99.90;;;;;;5062785;28;19916;-75
2023/03/20 03:59:48;;;;;;;;;;;9.20;99.90;;;;;;5071991;28;20408;-75
2023/03/20 04:02:15;;;;;;;;;;;9.20;99.90;;;;;;5068042;28;19909;-75
2023/03/20 04:04:45;;;;;;;;;;;9.20;99.90;;;;;;5068170;28;19916;-75
2023/03/20 04:07:12;;;;;;;;;;;9.20;99.90;;;;;;5068189;28;20437;-75
2023/03/20 04:09:38;;;;;;;;;;;9.20;99.90;;;;;;5068109;28;20538;-75
2023/03/20 04:12:03;;;;;;;;;;;9.10;99.90;;;;;;5067700;28;19919;-75
2023/03/20 04:14:29;;;;;;;;;;;9.10;99.90;;;;;;5075713;28;19947;-76
2023/03/20 04:16:54;;;;;;;;;;;9.10;99.90;;;;;;5087887;28;19916;-75
2023/03/20 04:19:20;;;;;;;;;;;9.10;99.90;;;;;;5080704;28;19916;-76
2023/03/20 04:21:45;;;;;;;;;;;9.10;99.90;;;;;;5067688;28;19912;-75
2023/03/20 04:24:11;;;;;;;;;;;9.10;99.90;;;;;;5067934;28;19913;-75
2023/03/20 04:26:36;;;;;;;;;;;9.10;99.90;;;;;;5068010;28;19957;-76
2023/03/20 04:29:02;;;;;;;;;;;9.10;99.90;;;;;;5071786;28;19911;-75
2023/03/20 04:31:28;;;;;;;;;;;9.10;99.90;;;;;;5087916;28;19919;-75
2023/03/20 04:33:54;;;;;;;;;;;9.10;99.90;;;;;;5059852;28;19920;-76
2023/03/20 04:36:20;;;;;;;;;;;9.10;99.90;;;;;;5067755;28;19916;-75
2023/03/20 04:38:45;;;;;;;;;;;9.00;99.90;;;;;;5067802;28;19908;-75
2023/03/20 04:41:11;;;;;;;;;;;9.00;99.90;;;;;;5067430;28;19912;-75
2023/03/20 04:43:36;;;;;;;;;;;9.00;99.90;;;;;;5067836;28;20369;-76
2023/03/20 04:46:02;;;;;;;;;;;9.00;99.90;;;;;;5049892;28;20011;-76
2023/03/20 04:48:27;;;;;;;;;;;9.00;99.90;;;;;;5068064;28;19912;-75
2023/03/20 04:50:53;;;;;;;;;;;9.00;99.90;;;;;;5066914;28;20023;-75
2023/03/20 04:53:19;;;;;;;;;;;9.00;99.90;;;;;;5068064;28;19909;-75
2023/03/20 04:55:44;;;;;;;;;;;9.00;99.90;;;;;;5067352;28;19957;-76
2023/03/20 04:58:10;;;;;;;;;;;9.00;99.90;;;;;;5061715;28;19927;-75
2023/03/20 05:00:36;;;;;;;;;;;9.00;99.90;;;;;;5071067;28;19965;-76
2023/03/20 05:03:01;;;;;;;;;;;8.90;99.90;;;;;;5069098;28;19913;-75
2023/03/20 05:05:28;;;;;;;;;;;8.90;99.90;;;;;;5069285;28;19948;-75
2023/03/20 05:07:54;;;;;;;;;;;8.90;99.90;;;;;;5087661;28;19916;-75
2023/03/20 05:10:19;;;;;;;;;;;8.90;99.90;;;;;;5082957;28;20292;-75
2023/03/20 05:12:45;;;;;;;;;;;8.90;99.90;;;;;;5059388;28;20377;-75
2023/03/20 05:15:11;;;;;;;;;;;8.90;99.90;;;;;;5084715;28;19950;-75
2023/03/20 05:17:36;;;;;;;;;;;8.90;99.90;;;;;;5087660;28;19969;-75
2023/03/20 05:20:02;;;;;;;;;;;8.90;99.90;;;;;;5082199;28;20643;-75
2023/03/20 05:22:27;;;;;;;;;;;8.90;99.90;;;;;;5067226;28;19913;-75
2023/03/20 05:24:53;;;;;;;;;;;8.80;99.90;;;;;;5067378;28;19921;-75
2023/03/20 05:27:18;;;;;;;;;;;8.80;99.90;;;;;;5067320;28;20053;-75
2023/03/20 05:29:44;;;;;;;;;;;8.80;99.90;;;;;;5076906;28;19928;-75
2023/03/20 05:32:11;;;;;;;;;;;8.80;99.90;;;;;;5087255;28;19916;-75
2023/03/20 05:34:38;;;;;;;;;;;8.80;99.90;;;;;;5053384;28;20517;-75
2023/03/20 05:37:04;;;;;;;;;;;8.80;99.90;;;;;;5067345;28;19924;-75
2023/03/20 05:39:29;;;;;;;;;;;8.80;99.90;;;;;;5067106;28;20011;-75
2023/03/20 05:41:55;;;;;;;;;;;8.80;99.90;;;;;;5066770;28;19917;-75
2023/03/20 05:44:20;;;;;;;;;;;8.80;99.90;;;;;;5068458;28;19944;-75
2023/03/20 05:46:46;;;;;;;;;;;8.80;99.90;;;;;;5076293;28;20284;-75
2023/03/20 05:49:11;;;;;;;;;;;8.80;99.90;;;;;;5081867;28;19927;-75
2023/03/20 05:51:37;;;;;;;;;;;8.80;99.90;;;;;;5079181;28;19913;-75
2023/03/20 05:54:03;;;;;;;;;;;8.70;99.90;;;;;;5080454;28;19912;-75
2023/03/20 05:56:28;;;;;;;;;;;8.70;99.90;;;;;;5088995;28;19927;-75
2023/03/20 05:58:54;;;;;;;;;;;8.70;99.90;;;;;;5075211;28;20026;-75
2023/03/20 06:01:22;;;;;;;;;;;8.70;99.90;;;;;;5077962;28;20017;-75
2023/03/20 06:03:47;;;;;;;;;;;8.70;99.90;;;;;;5078388;28;19948;-75
2023/03/20 06:06:14;;;;;;;;;;;8.70;99.90;;;;;;5080937;28;20324;-75
2023/03/20 06:08:40;;;;;;;;;;;8.70;99.90;;;;;;5079810;28;20277;-75
2023/03/20 06:11:05;;;;;;;;;;;8.70;99.90;;;;;;5073886;28;19912;-75
2023/03/20 06:13:31;;;;;;;;;;;8.70;99.90;;;;;;5070300;28;20424;-76
2023/03/20 06:15:56;;;;;;;;;;;8.70;99.90;;;;;;5070517;28;19912;-75
2023/03/20 06:18:22;;;;;;;;;;;8.60;99.90;;;;;;5051990;28;20034;-75
2023/03/20 06:20:51;;;;;;;;;;;8.70;99.90;;;;;;5070139;28;19927;-75
2023/03/20 06:23:17;;;;;;;;;;;8.70;99.90;;;;;;5070301;28;19912;-75
2023/03/20 06:25:42;;;;;;;;;;;8.60;99.90;;;;;;5069872;28;19912;-75
2023/03/20 06:28:08;;;;;;;;;;;8.60;99.90;;;;;;5069936;28;19920;-75
2023/03/20 06:30:33;;;;;;;;;;;8.60;99.90;;;;;;5086414;28;19908;-75
2023/03/20 06:32:59;;;;;;;;;;;8.60;99.90;;;;;;5070328;28;20605;-75
2023/03/20 06:35:29;;;;;;;;;;;8.60;99.90;;;;;;5070141;28;19958;-74
2023/03/20 06:37:55;;;;;;;;;;;8.60;99.90;;;;;;5069890;28;19923;-75
2023/03/20 06:40:21;;;;;;;;;;;8.60;99.90;;;;;;5075335;28;19960;-75
2023/03/20 06:42:46;;;;;;;;;;;8.60;99.90;;;;;;5079335;28;19912;-75
2023/03/20 06:45:12;;;;;;;;;;;8.60;99.90;;;;;;5078654;28;20481;-75
2023/03/20 06:47:37;;;;;;;;;;;8.60;99.90;;;;;;5080332;28;19965;-75
2023/03/20 06:50:03;;;;;;;;;;;8.60;99.90;;;;;;5078971;28;19915;-75
2023/03/20 06:52:29;;;;;;;;;;;8.60;99.90;;;;;;5061127;28;19916;-74
2023/03/20 06:54:55;;;;;;;;;;;8.60;99.90;;;;;;5076478;28;19955;-75
2023/03/20 06:57:21;;;;;;;;;;;8.60;99.90;;;;;;5065486;28;19940;-75
2023/03/20 06:59:46;;;;;;;;;;;8.70;99.90;;;;;;5073290;28;19958;-75
2023/03/20 07:02:12;;;;;;;;;;;8.60;99.90;;;;;;5080213;28;19957;-75
2023/03/20 07:04:38;;;;;;;;;;;8.60;99.90;;;;;;5078342;28;19915;-75
2023/03/20 07:07:03;;;;;;;;;;;8.60;99.90;;;;;;5077817;28;19912;-75
2023/03/20 07:09:29;;;;;;;;;;;8.60;99.90;;;;;;5079109;28;20019;-75
2023/03/20 07:11:54;;;;;;;;;;;8.60;99.90;;;;;;5073411;28;19912;-75
2023/03/20 07:14:20;;;;;;;;;;;8.60;99.90;;;;;;5070008;28;19955;-75
2023/03/20 07:16:45;;;;;;;;;;;8.60;99.90;;;;;;5068806;28;19951;-75
2023/03/20 07:19:12;;;;;;;;;;;8.70;99.90;;;;;;5069047;28;19912;-75
2023/03/20 07:21:37;;;;;;;;;;;8.70;99.90;;;;;;5052419;28;19920;-75
2023/03/20 07:24:03;;;;;;;;;;;8.70;99.90;;;;;;5077904;28;19922;-75
2023/03/20 07:26:29;;;;;;;;;;;8.70;99.90;;;;;;5079700;28;19912;-76
2023/03/20 07:28:54;;;;;;;;;;;8.70;99.90;;;;;;5078201;28;19912;-76
2023/03/20 07:31:21;;;;;;;;;;;8.70;99.90;;;;;;5076803;28;20065;-75
2023/03/20 07:33:46;;;;;;;;;;;8.70;99.90;;;;;;5076854;28;19912;-75
2023/03/20 07:36:12;;;;;;;;;;;8.70;99.90;;;;;;5089198;28;19920;-75
2023/03/20 07:38:37;;;;;;;;;;;8.80;99.90;;;;;;5088773;28;19923;-75
2023/03/20 07:41:03;;;;;;;;;;;8.80;99.90;;;;;;5073362;28;19912;-75
2023/03/20 07:43:28;;;;;;;;;;;8.80;99.90;;;;;;5068491;28;20011;-75
2023/03/20 07:45:54;;;;;;;;;;;8.80;99.90;;;;;;5068576;28;20018;-75
2023/03/20 07:48:19;;;;;;;;;;;8.80;99.90;;;;;;5068368;28;19940;-75
2023/03/20 07:50:45;;;;;;;;;;;8.80;99.90;;;;;;5068335;28;20258;-75
2023/03/20 07:53:10;;;;;;;;;;;8.80;99.90;;;;;;5068352;28;20564;-75
2023/03/20 07:55:36;;;;;;;;;;;8.90;99.90;;;;;;5068733;28;19912;-75
2023/03/20 07:58:01;;;;;;;;;;;8.90;99.90;;;;;;5062889;28;19916;-76
2023/03/20 08:00:27;;;;;;;;;;;8.90;99.90;;;;;;5072100;28;20000;-75
2023/03/20 08:02:52;;;;;;;;;;;8.90;99.90;;;;;;5067990;28;19974;-75
2023/03/20 08:05:18;;;;;;;;;;;9.00;99.90;;;;;;5068296;28;20365;-75
2023/03/20 08:07:45;;;;;;;;;;;9.00;99.90;;;;;;5068212;28;19908;-75
2023/03/20 08:10:10;;;;;;;;;;;9.00;99.90;;;;;;5068263;28;19916;-75
2023/03/20 08:12:36;;;;;;;;;;;9.00;99.90;;;;;;5067738;28;19908;-75
2023/03/20 08:15:01;;;;;;;;;;;9.10;99.90;;;;;;5068155;28;20005;-75
2023/03/20 08:17:27;;;;;;;;;;;9.10;99.90;;;;;;5067872;28;19916;-75
2023/03/20 08:19:52;;;;;;;;;;;9.10;99.90;;;;;;5049868;28;19920;-75
2023/03/20 08:22:18;;;;;;;;;;;9.10;99.90;;;;;;5067741;28;20369;-76
2023/03/20 08:24:43;;;;;;;;;;;9.20;99.90;;;;;;5067939;28;19908;-76
2023/03/20 08:27:09;;;;;;;;;;;9.20;99.90;;;;;;5068086;28;19912;-75
2023/03/20 08:29:34;;;;;;;;;;;9.20;99.90;;;;;;5076545;28;20438;-75
2023/03/20 08:32:00;;;;;;;;;;;9.20;99.90;;;;;;5087910;28;20010;-76
2023/03/20 08:34:26;;;;;;;;;;;9.30;99.90;;;;;;5074310;28;20300;-76
2023/03/20 08:36:51;;;;;;;;;;;9.30;99.90;;;;;;5067677;28;19916;-76
2023/03/20 08:39:17;;;;;;;;;;;9.40;99.90;;;;;;5067722;28;19912;-76
2023/03/20 08:41:44;;;;;;;;;;;9.40;99.90;;;;;;5049307;28;19971;-76
2023/03/20 08:44:10;;;;;;;;;;;9.50;99.90;;;;;;5067914;28;19916;-77
2023/03/20 08:46:36;;;;;;;;;;;9.50;99.90;;;;;;5067871;28;19908;-76
2023/03/20 08:49:01;;;;;;;;;;;9.50;99.90;;;;;;5067971;28;19916;-76
2023/03/20 08:51:27;;;;;;;;;;;9.50;99.90;;;;;;5067275;28;20376;-76
2023/03/20 08:53:52;;;;;;;;;;;9.60;99.90;;;;;;5067121;28;19916;-75
2023/03/20 08:56:18;;;;;;;;;;;9.60;99.90;;;;;;5066941;28;19999;-76
2023/03/20 08:58:43;;;;;;;;;;;9.60;99.90;;;;;;5058924;28;19913;-76
2023/03/20 09:01:09;;;;;;;;;;;9.60;99.90;;;;;;5065340;28;19924;-76
2023/03/20 09:03:35;;;;;;;;;;;9.70;99.90;;;;;;5049161;28;19919;-76
2023/03/20 09:06:03;;;;;;;;;;;9.70;99.70;;;;;;5049599;28;19935;-76
2023/03/20 09:08:29;;;;;;;;;;;9.70;99.90;;;;;;5049478;28;19912;-76
2023/03/20 09:10:54;;;;;;;;;;;9.80;99.60;;;;;;5069465;28;20003;-76
2023/03/20 09:13:21;;;;;;;;;;;9.80;99.80;;;;;;5067282;28;19959;-76
2023/03/20 09:15:47;;;;;;;;;;;9.80;99.80;;;;;;5067667;28;19916;-76
2023/03/20 09:18:12;;;;;;;;;;;9.80;99.60;;;;;;5067170;28;19917;-76
2023/03/20 09:20:38;;;;;;;;;;;9.80;99.60;;;;;;5052627;28;19957;-76
2023/03/20 09:23:03;;;;;;;;;;;9.80;99.50;;;;;;5053284;28;19909;-76
2023/03/20 09:25:29;;;;;;;;;;;9.80;99.30;;;;;;5071516;28;20420;-76
2023/03/20 09:27:55;;;;;;;;;;;9.80;99.60;;;;;;5071078;28;19966;-76
2023/03/20 09:30:22;;;;;;;;;;;9.80;99.50;;;;;;5071235;28;19970;-76
2023/03/20 09:32:48;;;;;;;;;;;9.90;99.50;;;;;;5070983;28;19931;-76
2023/03/20 09:35:14;;;;;;;;;;;9.90;99.20;;;;;;5071493;28;19919;-76
2023/03/20 09:37:39;;;;;;;;;;;9.90;99.20;;;;;;5070846;28;19916;-76
2023/03/20 09:40:05;;;;;;;;;;;9.90;99.10;;;;;;5071027;28;19919;-76
2023/03/20 09:42:49;;;;;;;;;;;9.90;99.40;;;;;;5070750;28;19915;-76
2023/03/20 09:45:15;;;;;;;;;;;9.90;99.50;;;;;;5052989;28;19913;-76
2023/03/20 09:47:48;;;;;;;;;;;9.90;99.00;;;;;;5070759;28;20551;-76
2023/03/20 09:50:21;;;;;;;;;;;9.90;99.10;;;;;;5070753;28;19913;-76
2023/03/20 09:52:52;;;;;;;;;;;9.90;99.20;;;;;;5070601;28;19908;-76
2023/03/20 09:55:21;;;;;;;;;;;9.90;99.30;;;;;;5052440;28;19912;-76
2023/03/20 09:57:49;;;;;;;;;;;9.90;99.50;;;;;;5064830;28;20019;-76
2023/03/20 10:00:17;;;;;;;;;;;9.90;99.40;;;;;;5070470;28;19927;-76
2023/03/20 10:02:55;;;;;;;;;;;9.90;99.40;;;;;;5069270;28;19970;-76
2023/03/20 10:05:21;;;;;;;;;;;10.00;99.40;;;;;;5050611;28;20547;-76
2023/03/20 10:07:46;;;;;;;;;;;10.00;99.20;;;;;;5066133;28;19965;-76
2023/03/20 10:10:14;;;;;;;;;;;10.00;99.20;;;;;;5075769;28;19919;-76
2023/03/20 10:12:55;;;;;;;;;;;10.00;99.10;;;;;;5078207;28;19916;-76
2023/03/20 10:15:20;;;;;;;;;;;10.00;99.20;;;;;;5077298;28;19923;-76
2023/03/20 10:17:46;;;;;;;;;;;10.00;99.00;;;;;;5089837;28;19912;-76
2023/03/20 10:20:13;;;;;;;;;;;10.00;99.00;;;;;;5060808;28;19958;-76
2023/03/20 10:22:41;;;;;;;;;;;10.10;99.00;;;;;;5077605;28;19916;-76
2023/03/20 10:25:27;;;;;;;;;;;10.10;99.00;;;;;;5079466;28;19912;-76
2023/03/20 10:28:19;;;;;;;;;;;10.10;99.00;;;;;;5078003;28;20373;-76
2023/03/20 10:30:56;;;;;;;;;;;10.10;98.80;;;;;;5073593;28;20058;-76
2023/03/20 10:33:37;;;;;;;;;;;10.10;98.90;;;;;;5062992;28;19919;-76
2023/03/20 10:36:03;;;;;;;;;;;10.10;99.00;;;;;;5080557;28;19914;-76
2023/03/20 10:38:37;;;;;;;;;;;10.10;99.20;;;;;;5079556;28;19916;-76
2023/03/20 10:41:08;;;;;;;;;;;10.10;99.10;;;;;;5076231;28;20274;-76
2023/03/20 10:43:35;;;;;;;;;;;10.10;99.10;;;;;;5089813;28;20304;-76
2023/03/20 10:46:13;;;;;;;;;;;10.10;99.00;;;;;;5071381;28;19947;-76
2023/03/20 10:48:57;;;;;;;;;;;10.20;99.10;;;;;;5089772;28;19912;-76
2023/03/20 10:51:25;;;;;;;;;;;10.10;99.00;;;;;;5072529;28;19951;-76
2023/03/20 10:53:52;;;;;;;;;;;10.20;98.70;;;;;;5069310;28;19920;-76
2023/03/20 10:56:26;;;;;;;;;;;10.20;98.70;;;;;;5069476;28;20358;-76
2023/03/20 10:58:56;;;;;;;;;;;10.20;98.60;;;;;;5064264;28;20031;-76
2023/03/20 11:01:21;;;;;;;;;;;10.20;98.60;;;;;;5069050;28;19923;-76
2023/03/20 11:03:47;;;;;;;;;;;10.30;98.60;;;;;;5077411;28;19912;-76
2023/03/20 11:06:25;;;;;;;;;;;10.30;98.60;;;;;;5089803;28;19912;-77
2023/03/20 11:08:51;;;;;;;;;;;10.30;98.50;;;;;;5089589;28;19922;-76
2023/03/20 11:11:21;;;;;;;;;;;10.30;98.60;;;;;;5071419;28;19912;-76
2023/03/20 11:13:48;;;;;;;;;;;10.40;98.20;;;;;;5079382;28;20018;-76
2023/03/20 11:16:19;;;;;;;;;;;10.40;98.10;;;;;;5068011;28;19958;-77
2023/03/20 11:18:48;;;;;;;;;;;10.40;97.80;;;;;;5068412;28;20018;-76
2023/03/20 11:21:27;;;;;;;;;;;10.50;98.10;;;;;;5067840;28;19931;-76
2023/03/20 11:23:53;;;;;;;;;;;10.50;98.00;;;;;;5067994;28;19919;-76
2023/03/20 11:26:26;;;;;;;;;;;10.50;98.00;;;;;;5068093;28;19913;-76
2023/03/20 11:28:54;;;;;;;;;;;10.60;98.00;;;;;;5068081;28;20002;-76
2023/03/20 11:31:24;;;;;;;;;;;10.60;98.00;;;;;;5067534;28;20339;-77
2023/03/20 11:33:52;;;;;;;;;;;10.70;97.80;;;;;;5058090;28;19916;-76
2023/03/20 11:36:22;;;;;;;;;;;10.70;97.90;;;;;;5087422;28;19920;-77
2023/03/20 11:38:49;;;;;;;;;;;10.70;97.10;;;;;;5087352;28;20056;-77
2023/03/20 11:41:32;;;;;;;;;;;10.80;97.50;;;;;;5069110;28;20309;-77
2023/03/20 11:43:58;;;;;;;;;;;10.80;97.70;;;;;;5068109;28;19998;-77
2023/03/20 11:46:24;;;;;;;;;;;10.80;97.60;;;;;;5049662;28;20010;-76
2023/03/20 11:49:03;;;;;;;;;;;10.80;97.50;;;;;;5067797;28;20566;-77
2023/03/20 11:51:29;;;;;;;;;;;10.80;97.50;;;;;;5067198;28;20533;-76
2023/03/20 11:53:55;;;;;;;;;;;10.90;97.70;;;;;;5049664;28;20558;-77
2023/03/20 11:56:24;;;;;;;;;;;10.90;97.60;;;;;;5067551;28;19912;-77
2023/03/20 11:59:02;;;;;;;;;;;10.90;97.60;;;;;;5061733;28;19921;-76
2023/03/20 12:01:28;;;;;;;;;;;10.90;97.40;;;;;;5065433;28;20461;-77
2023/03/20 12:03:54;;;;;;;;;;;10.90;97.60;;;;;;5067446;28;19912;-76
2023/03/20 12:06:26;;;;;;;;;;;10.90;97.60;;;;;;5067467;28;20518;-77
2023/03/20 12:09:01;;;;;;;;;;;10.90;97.50;;;;;;5067510;28;20577;-77
2023/03/20 12:11:32;;;;;;;;;;;10.90;97.20;;;;;;5049532;28;19915;-77
2023/03/20 12:13:59;;;;;;;;;;;10.90;97.50;;;;;;5049238;28;19978;-77
2023/03/20 12:16:26;;;;;;;;;;;11.00;97.70;;;;;;5067170;28;19912;-77
2023/03/20 12:18:58;;;;;;;;;;;10.90;97.30;;;;;;5066883;28;19916;-77
2023/03/20 12:21:30;;;;;;;;;;;11.00;97.10;;;;;;5066751;28;19974;-77
2023/03/20 12:24:01;;;;;;;;;;;11.00;97.60;;;;;;5067099;28;20357;-77
2023/03/20 12:26:34;;;;;;;;;;;11.00;97.50;;;;;;5067109;28;19912;-77
2023/03/20 12:29:20;;;;;;;;;;;11.00;97.40;;;;;;5066974;28;19989;-77
2023/03/20 12:31:49;;;;;;;;;;;10.90;97.40;;;;;;5066765;28;19920;-77
2023/03/20 12:34:20;;;;;;;;;;;10.90;97.50;;;;;;5079105;28;19924;-77
2023/03/20 12:36:47;;;;;;;;;;;10.90;97.70;;;;;;5087068;28;19954;-76
2023/03/20 12:39:17;;;;;;;;;;;10.90;97.40;;;;;;5087056;28;19947;-77
2023/03/20 12:41:42;;;;;;;;;;;10.90;97.40;;;;;;5046338;28;19916;-76
2023/03/20 12:44:21;;;;;;;;;;;10.90;97.70;;;;;;5046788;28;19912;-77
2023/03/20 12:47:02;;;;;;;;;;;10.90;97.70;;;;;;5046453;28;19913;-77
2023/03/20 12:49:40;;;;;;;;;;;10.90;97.80;;;;;;5047730;28;20611;-78
2023/03/20 12:52:06;;;;;;;;;;;10.90;97.60;;;;;;5048830;28;19914;-77
2023/03/20 12:54:34;;;;;;;;;;;10.90;97.70;;;;;;5066140;28;19912;-77
2023/03/20 12:57:35;;;;;;;;;;;10.90;97.30;;;;;;5066405;28;19916;-76
2023/03/20 13:00:12;;;;;;;;;;;10.90;97.70;;;;;;4980471;28;20359;-77
2023/03/20 13:02:43;;;;;;;;;;;10.90;97.70;;;;;;5020390;28;19967;-76
2023/03/20 13:05:27;;;;;;;;;;;10.90;97.80;;;;;;5085537;28;19912;-76
2023/03/20 13:07:56;;;;;;;;;;;10.90;97.70;;;;;;5086624;28;20033;-77
2023/03/20 13:10:22;;;;;;;;;;;10.90;97.40;;;;;;5078779;28;19916;-77
2023/03/20 13:12:48;;;;;;;;;;;11.00;97.50;;;;;;5064998;28;20657;-77
2023/03/20 13:15:22;;;;;;;;;;;10.90;97.60;;;;;;5066863;28;19951;-76
2023/03/20 13:17:54;;;;;;;;;;;11.00;97.60;;;;;;5066583;28;20517;-76
2023/03/20 13:20:40;;;;;;;;;;;11.00;97.70;;;;;;5066700;28;19955;-76
2023/03/20 13:23:17;;;;;;;;;;;11.00;97.60;;;;;;5066024;28;19934;-77
2023/03/20 13:25:52;;;;;;;;;;;11.00;97.40;;;;;;5066778;28;19912;-76
2023/03/20 13:28:24;;;;;;;;;;;11.00;97.60;;;;;;5048152;28;19909;-76
2023/03/20 13:30:55;;;;;;;;;;;11.00;97.60;;;;;;5066173;28;20570;-77
2023/03/20 13:33:24;;;;;;;;;;;11.00;97.70;;;;;;5070825;28;19908;-77
2023/03/20 13:35:56;;;;;;;;;;;11.00;97.80;;;;;;5086859;28;19918;-77
2023/03/20 13:38:23;;;;;;;;;;;11.00;97.70;;;;;;5086440;28;19923;-77
2023/03/20 13:41:00;;;;;;;;;;;11.00;97.70;;;;;;5073400;28;19912;-76
2023/03/20 13:43:31;;;;;;;;;;;11.00;97.80;;;;;;5066176;28;19939;-76
2023/03/20 13:46:16;;;;;;;;;;;11.00;97.90;;;;;;5066540;28;19916;-76
2023/03/20 13:48:43;;;;;;;;;;;11.00;97.90;;;;;;5048300;28;19912;-77
2023/03/20 13:51:17;;;;;;;;;;;11.00;97.90;;;;;;5066084;28;19912;-77
2023/03/20 13:53:49;;;;;;;;;;;11.00;97.70;;;;;;5065973;28;19919;-77
2023/03/20 13:56:14;;;;;;;;;;;11.00;97.70;;;;;;5066368;28;19917;-77
2023/03/20 13:58:44;;;;;;;;;;;11.00;97.70;;;;;;5060003;28;19920;-77
2023/03/20 14:01:31;;;;;;;;;;;11.00;97.80;;;;;;5065676;28;19955;-77
2023/03/20 14:03:57;;;;;;;;;;;10.90;97.90;;;;;;5066999;28;19939;-77
2023/03/20 14:06:25;;;;;;;;;;;10.90;97.90;;;;;;5090033;28;19912;-76
2023/03/20 14:08:52;;;;;;;;;;;10.90;98.00;;;;;;5090795;28;20537;-77
2023/03/20 14:11:20;;;;;;;;;;;10.90;97.90;;;;;;5090324;28;20027;-77
2023/03/20 14:13:57;;;;;;;;;;;10.90;98.10;;;;;;5089701;28;20407;-76
2023/03/20 14:16:22;;;;;;;;;;;10.90;98.10;;;;;;5081875;28;19912;-77
2023/03/20 14:18:49;;;;;;;;;;;10.90;98.10;;;;;;5068935;28;20500;-77
2023/03/20 14:21:22;;;;;;;;;;;10.90;98.00;;;;;;5049641;28;19924;-76
2023/03/20 14:23:49;;;;;;;;;;;10.90;97.90;;;;;;5068671;28;20583;-77
2023/03/20 14:26:14;;;;;;;;;;;10.90;98.00;;;;;;5069348;28;19920;-77
2023/03/20 14:29:06;;;;;;;;;;;10.90;97.60;;;;;;5069637;28;19912;-76
2023/03/20 14:31:36;;;;;;;;;;;10.90;98.20;;;;;;5044926;28;19912;-77